sensor_id;sensor_type;location;lat;lon;timestamp;P1;durP1;ratioP1;P2;durP2;ratioP2
17614;SDS011;8926;49.720;6.576;2022-07-30T00:00:37;1.70;;;1.60;;
17614;SDS011;8926;49.720;6.576;2022-07-30T00:03:02;1.43;;;1.20;;
17614;SDS011;8926;49.720;6.576;2022-07-30T00:05:28;1.37;;;1.37;;
17614;SDS011;8926;49.720;6.576;2022-07-30T00:07:53;1.80;;;1.70;;
17614;SDS011;8926;49.720;6.576;2022-07-30T00:10:19;1.20;;;1.20;;
17614;SDS011;8926;49.720;6.576;2022-07-30T00:12:44;1.07;;;1.07;;
17614;SDS011;8926;49.720;6.576;2022-07-30T00:15:10;1.33;;;1.33;;
17614;SDS011;8926;49.720;6.576;2022-07-30T00:17:35;1.00;;;1.00;;
17614;SDS011;8926;49.720;6.576;2022-07-30T00:20:00;1.40;;;1.40;;
17614;SDS011;8926;49.720;6.576;2022-07-30T00:22:26;1.33;;;1.23;;
17614;SDS011;8926;49.720;6.576;2022-07-30T00:24:51;1.60;;;1.50;;
17614;SDS011;8926;49.720;6.576;2022-07-30T00:27:17;1.27;;;1.23;;
17614;SDS011;8926;49.720;6.576;2022-07-30T00:29:42;1.23;;;1.20;;
17614;SDS011;8926;49.720;6.576;2022-07-30T00:32:08;1.23;;;1.23;;
17614;SDS011;8926;49.720;6.576;2022-07-30T00:34:33;1.20;;;1.20;;
17614;SDS011;8926;49.720;6.576;2022-07-30T00:36:58;1.90;;;1.80;;
17614;SDS011;8926;49.720;6.576;2022-07-30T00:39:24;1.60;;;1.50;;
17614;SDS011;8926;49.720;6.576;2022-07-30T00:41:56;1.40;;;1.40;;
17614;SDS011;8926;49.720;6.576;2022-07-30T00:44:24;1.60;;;1.50;;
17614;SDS011;8926;49.720;6.576;2022-07-30T00:46:50;1.87;;;1.77;;
17614;SDS011;8926;49.720;6.576;2022-07-30T00:49:16;1.57;;;1.47;;
17614;SDS011;8926;49.720;6.576;2022-07-30T00:51:41;1.70;;;1.60;;
17614;SDS011;8926;49.720;6.576;2022-07-30T00:54:06;1.80;;;1.70;;
17614;SDS011;8926;49.720;6.576;2022-07-30T00:56:31;1.53;;;1.43;;
17614;SDS011;8926;49.720;6.576;2022-07-30T00:58:57;1.70;;;1.60;;
17614;SDS011;8926;49.720;6.576;2022-07-30T01:01:22;2.20;;;2.07;;
17614;SDS011;8926;49.720;6.576;2022-07-30T01:03:47;1.87;;;1.77;;
17614;SDS011;8926;49.720;6.576;2022-07-30T01:06:13;2.40;;;2.30;;
17614;SDS011;8926;49.720;6.576;2022-07-30T01:08:38;2.23;;;2.07;;
17614;SDS011;8926;49.720;6.576;2022-07-30T01:11:03;2.00;;;1.90;;
17614;SDS011;8926;49.720;6.576;2022-07-30T01:13:29;1.80;;;1.70;;
17614;SDS011;8926;49.720;6.576;2022-07-30T01:15:54;1.60;;;1.50;;
17614;SDS011;8926;49.720;6.576;2022-07-30T01:18:22;1.80;;;1.70;;
17614;SDS011;8926;49.720;6.576;2022-07-30T01:21:09;1.80;;;1.70;;
17614;SDS011;8926;49.720;6.576;2022-07-30T01:23:41;1.60;;;1.50;;
17614;SDS011;8926;49.720;6.576;2022-07-30T01:26:18;1.73;;;1.63;;
17614;SDS011;8926;49.720;6.576;2022-07-30T01:28:48;1.10;;;1.10;;
17614;SDS011;8926;49.720;6.576;2022-07-30T01:31:17;1.43;;;1.43;;
17614;SDS011;8926;49.720;6.576;2022-07-30T01:33:44;1.30;;;1.30;;
17614;SDS011;8926;49.720;6.576;2022-07-30T01:36:13;1.50;;;1.40;;
17614;SDS011;8926;49.720;6.576;2022-07-30T01:38:40;1.60;;;1.50;;
17614;SDS011;8926;49.720;6.576;2022-07-30T01:41:08;1.33;;;1.23;;
17614;SDS011;8926;49.720;6.576;2022-07-30T01:43:35;1.50;;;1.40;;
17614;SDS011;8926;49.720;6.576;2022-07-30T01:46:01;1.60;;;1.50;;
17614;SDS011;8926;49.720;6.576;2022-07-30T01:48:28;1.37;;;1.37;;
17614;SDS011;8926;49.720;6.576;2022-07-30T01:50:56;1.60;;;1.50;;
17614;SDS011;8926;49.720;6.576;2022-07-30T01:53:25;1.53;;;1.50;;
17614;SDS011;8926;49.720;6.576;2022-07-30T01:55:54;1.90;;;1.80;;
17614;SDS011;8926;49.720;6.576;2022-07-30T01:58:20;1.77;;;1.67;;
17614;SDS011;8926;49.720;6.576;2022-07-30T02:00:48;1.37;;;1.27;;
17614;SDS011;8926;49.720;6.576;2022-07-30T02:03:15;2.07;;;1.97;;
17614;SDS011;8926;49.720;6.576;2022-07-30T02:05:42;2.17;;;1.97;;
17614;SDS011;8926;49.720;6.576;2022-07-30T02:08:16;2.23;;;2.03;;
17614;SDS011;8926;49.720;6.576;2022-07-30T02:13:22;1.53;;;1.53;;
17614;SDS011;8926;49.720;6.576;2022-07-30T02:16:14;1.90;;;1.80;;
17614;SDS011;8926;49.720;6.576;2022-07-30T02:21:21;2.00;;;1.90;;
17614;SDS011;8926;49.720;6.576;2022-07-30T02:23:49;1.77;;;1.67;;
17614;SDS011;8926;49.720;6.576;2022-07-30T02:26:17;2.07;;;1.97;;
17614;SDS011;8926;49.720;6.576;2022-07-30T02:28:46;1.80;;;1.70;;
17614;SDS011;8926;49.720;6.576;2022-07-30T02:31:13;1.70;;;1.60;;
17614;SDS011;8926;49.720;6.576;2022-07-30T02:33:43;1.33;;;1.33;;
17614;SDS011;8926;49.720;6.576;2022-07-30T02:36:13;1.57;;;1.50;;
17614;SDS011;8926;49.720;6.576;2022-07-30T02:38:41;1.40;;;1.30;;
17614;SDS011;8926;49.720;6.576;2022-07-30T02:41:08;1.50;;;1.50;;
17614;SDS011;8926;49.720;6.576;2022-07-30T02:43:36;1.90;;;1.80;;
17614;SDS011;8926;49.720;6.576;2022-07-30T02:46:04;1.43;;;1.33;;
17614;SDS011;8926;49.720;6.576;2022-07-30T02:48:31;1.67;;;1.57;;
17614;SDS011;8926;49.720;6.576;2022-07-30T02:50:58;1.40;;;1.40;;
17614;SDS011;8926;49.720;6.576;2022-07-30T02:53:24;1.33;;;1.30;;
17614;SDS011;8926;49.720;6.576;2022-07-30T02:55:52;1.40;;;1.30;;
17614;SDS011;8926;49.720;6.576;2022-07-30T02:58:21;1.30;;;1.30;;
17614;SDS011;8926;49.720;6.576;2022-07-30T03:00:48;1.40;;;1.30;;
17614;SDS011;8926;49.720;6.576;2022-07-30T03:03:15;1.67;;;1.57;;
17614;SDS011;8926;49.720;6.576;2022-07-30T03:05:42;1.33;;;1.23;;
17614;SDS011;8926;49.720;6.576;2022-07-30T03:08:08;1.50;;;1.50;;
17614;SDS011;8926;49.720;6.576;2022-07-30T03:10:34;1.70;;;1.60;;
17614;SDS011;8926;49.720;6.576;2022-07-30T03:13:02;1.53;;;1.43;;
17614;SDS011;8926;49.720;6.576;2022-07-30T03:15:30;1.63;;;1.60;;
17614;SDS011;8926;49.720;6.576;2022-07-30T03:17:58;2.03;;;1.87;;
17614;SDS011;8926;49.720;6.576;2022-07-30T03:20:26;1.67;;;1.57;;
17614;SDS011;8926;49.720;6.576;2022-07-30T03:22:54;1.80;;;1.70;;
17614;SDS011;8926;49.720;6.576;2022-07-30T03:25:23;2.07;;;1.97;;
17614;SDS011;8926;49.720;6.576;2022-07-30T03:27:52;1.53;;;1.50;;
17614;SDS011;8926;49.720;6.576;2022-07-30T03:30:19;1.57;;;1.50;;
17614;SDS011;8926;49.720;6.576;2022-07-30T03:32:46;1.80;;;1.70;;
17614;SDS011;8926;49.720;6.576;2022-07-30T03:35:12;1.50;;;1.40;;
17614;SDS011;8926;49.720;6.576;2022-07-30T03:37:39;1.90;;;1.80;;
17614;SDS011;8926;49.720;6.576;2022-07-30T03:40:06;1.43;;;1.40;;
17614;SDS011;8926;49.720;6.576;2022-07-30T03:42:32;1.57;;;1.47;;
17614;SDS011;8926;49.720;6.576;2022-07-30T03:44:59;1.53;;;1.47;;
17614;SDS011;8926;49.720;6.576;2022-07-30T03:47:29;1.73;;;1.63;;
17614;SDS011;8926;49.720;6.576;2022-07-30T03:49:57;1.73;;;1.60;;
17614;SDS011;8926;49.720;6.576;2022-07-30T03:52:23;1.87;;;1.77;;
17614;SDS011;8926;49.720;6.576;2022-07-30T03:54:50;1.60;;;1.50;;
17614;SDS011;8926;49.720;6.576;2022-07-30T03:57:16;1.60;;;1.50;;
17614;SDS011;8926;49.720;6.576;2022-07-30T03:59:41;1.60;;;1.50;;
17614;SDS011;8926;49.720;6.576;2022-07-30T04:02:07;1.70;;;1.60;;
17614;SDS011;8926;49.720;6.576;2022-07-30T04:04:32;1.80;;;1.70;;
17614;SDS011;8926;49.720;6.576;2022-07-30T04:06:58;1.30;;;1.30;;
17614;SDS011;8926;49.720;6.576;2022-07-30T04:09:23;1.53;;;1.43;;
17614;SDS011;8926;49.720;6.576;2022-07-30T04:11:49;1.90;;;1.80;;
17614;SDS011;8926;49.720;6.576;2022-07-30T04:14:14;1.70;;;1.60;;
17614;SDS011;8926;49.720;6.576;2022-07-30T04:19:15;1.30;;;1.30;;
17614;SDS011;8926;49.720;6.576;2022-07-30T04:21:54;1.70;;;1.60;;
17614;SDS011;8926;49.720;6.576;2022-07-30T04:24:22;1.20;;;1.20;;
17614;SDS011;8926;49.720;6.576;2022-07-30T04:26:49;1.40;;;1.40;;
17614;SDS011;8926;49.720;6.576;2022-07-30T04:29:16;1.73;;;1.63;;
17614;SDS011;8926;49.720;6.576;2022-07-30T04:31:42;1.50;;;1.40;;
17614;SDS011;8926;49.720;6.576;2022-07-30T04:34:08;1.63;;;1.53;;
17614;SDS011;8926;49.720;6.576;2022-07-30T04:36:38;1.60;;;1.50;;
17614;SDS011;8926;49.720;6.576;2022-07-30T04:39:04;1.70;;;1.60;;
17614;SDS011;8926;49.720;6.576;2022-07-30T04:41:29;1.70;;;1.60;;
17614;SDS011;8926;49.720;6.576;2022-07-30T04:43:54;1.33;;;1.23;;
17614;SDS011;8926;49.720;6.576;2022-07-30T04:46:20;1.80;;;1.70;;
17614;SDS011;8926;49.720;6.576;2022-07-30T04:48:45;1.60;;;1.50;;
17614;SDS011;8926;49.720;6.576;2022-07-30T04:51:11;1.30;;;1.30;;
17614;SDS011;8926;49.720;6.576;2022-07-30T04:53:41;1.17;;;1.13;;
17614;SDS011;8926;49.720;6.576;2022-07-30T04:56:07;1.53;;;1.43;;
17614;SDS011;8926;49.720;6.576;2022-07-30T04:58:35;1.50;;;1.40;;
17614;SDS011;8926;49.720;6.576;2022-07-30T05:01:01;1.50;;;1.50;;
17614;SDS011;8926;49.720;6.576;2022-07-30T05:03:28;1.50;;;1.40;;
17614;SDS011;8926;49.720;6.576;2022-07-30T05:05:56;1.70;;;1.60;;
17614;SDS011;8926;49.720;6.576;2022-07-30T05:08:25;1.57;;;1.47;;
17614;SDS011;8926;49.720;6.576;2022-07-30T05:10:51;1.43;;;1.43;;
17614;SDS011;8926;49.720;6.576;2022-07-30T05:13:16;1.77;;;1.67;;
17614;SDS011;8926;49.720;6.576;2022-07-30T05:15:42;1.20;;;1.20;;
17614;SDS011;8926;49.720;6.576;2022-07-30T05:18:08;1.50;;;1.50;;
17614;SDS011;8926;49.720;6.576;2022-07-30T05:20:35;1.87;;;1.77;;
17614;SDS011;8926;49.720;6.576;2022-07-30T05:23:00;1.67;;;1.57;;
17614;SDS011;8926;49.720;6.576;2022-07-30T05:25:26;1.70;;;1.60;;
17614;SDS011;8926;49.720;6.576;2022-07-30T05:27:51;1.77;;;1.70;;
17614;SDS011;8926;49.720;6.576;2022-07-30T05:30:17;1.57;;;1.57;;
17614;SDS011;8926;49.720;6.576;2022-07-30T05:32:42;1.50;;;1.40;;
17614;SDS011;8926;49.720;6.576;2022-07-30T05:35:08;1.70;;;1.60;;
17614;SDS011;8926;49.720;6.576;2022-07-30T05:37:33;1.50;;;1.40;;
17614;SDS011;8926;49.720;6.576;2022-07-30T05:39:58;1.53;;;1.43;;
17614;SDS011;8926;49.720;6.576;2022-07-30T05:42:24;1.50;;;1.40;;
17614;SDS011;8926;49.720;6.576;2022-07-30T05:44:49;1.17;;;1.17;;
17614;SDS011;8926;49.720;6.576;2022-07-30T05:47:15;1.53;;;1.43;;
17614;SDS011;8926;49.720;6.576;2022-07-30T05:49:42;1.27;;;1.27;;
17614;SDS011;8926;49.720;6.576;2022-07-30T05:52:07;1.90;;;1.70;;
17614;SDS011;8926;49.720;6.576;2022-07-30T05:54:32;1.30;;;1.30;;
17614;SDS011;8926;49.720;6.576;2022-07-30T05:56:58;1.80;;;1.70;;
17614;SDS011;8926;49.720;6.576;2022-07-30T05:59:23;1.57;;;1.50;;
17614;SDS011;8926;49.720;6.576;2022-07-30T06:01:49;1.40;;;1.40;;
17614;SDS011;8926;49.720;6.576;2022-07-30T06:04:14;2.00;;;1.90;;
17614;SDS011;8926;49.720;6.576;2022-07-30T06:06:39;1.70;;;1.60;;
17614;SDS011;8926;49.720;6.576;2022-07-30T06:09:04;1.40;;;1.30;;
17614;SDS011;8926;49.720;6.576;2022-07-30T06:11:30;2.73;;;2.30;;
17614;SDS011;8926;49.720;6.576;2022-07-30T06:13:55;1.80;;;1.70;;
17614;SDS011;8926;49.720;6.576;2022-07-30T06:16:20;2.43;;;2.07;;
17614;SDS011;8926;49.720;6.576;2022-07-30T06:18:46;1.70;;;1.60;;
17614;SDS011;8926;49.720;6.576;2022-07-30T06:21:11;1.20;;;1.20;;
17614;SDS011;8926;49.720;6.576;2022-07-30T06:23:36;1.60;;;1.50;;
17614;SDS011;8926;49.720;6.576;2022-07-30T06:26:02;1.57;;;1.47;;
17614;SDS011;8926;49.720;6.576;2022-07-30T06:28:27;1.40;;;1.40;;
17614;SDS011;8926;49.720;6.576;2022-07-30T06:30:52;1.17;;;1.17;;
17614;SDS011;8926;49.720;6.576;2022-07-30T06:33:17;1.60;;;1.50;;
17614;SDS011;8926;49.720;6.576;2022-07-30T06:35:43;1.83;;;1.73;;
17614;SDS011;8926;49.720;6.576;2022-07-30T06:38:09;1.90;;;1.80;;
17614;SDS011;8926;49.720;6.576;2022-07-30T06:40:34;1.40;;;1.30;;
17614;SDS011;8926;49.720;6.576;2022-07-30T06:43:00;1.90;;;1.80;;
17614;SDS011;8926;49.720;6.576;2022-07-30T06:45:25;2.50;;;1.90;;
17614;SDS011;8926;49.720;6.576;2022-07-30T06:47:50;1.50;;;1.40;;
17614;SDS011;8926;49.720;6.576;2022-07-30T06:50:15;1.30;;;1.30;;
17614;SDS011;8926;49.720;6.576;2022-07-30T06:52:44;1.50;;;1.40;;
17614;SDS011;8926;49.720;6.576;2022-07-30T06:55:09;1.57;;;1.47;;
17614;SDS011;8926;49.720;6.576;2022-07-30T06:57:34;1.77;;;1.67;;
17614;SDS011;8926;49.720;6.576;2022-07-30T07:00:00;1.53;;;1.43;;
17614;SDS011;8926;49.720;6.576;2022-07-30T07:02:25;1.53;;;1.43;;
17614;SDS011;8926;49.720;6.576;2022-07-30T07:04:50;1.50;;;1.40;;
17614;SDS011;8926;49.720;6.576;2022-07-30T07:07:15;2.00;;;1.90;;
17614;SDS011;8926;49.720;6.576;2022-07-30T07:09:41;1.90;;;1.70;;
17614;SDS011;8926;49.720;6.576;2022-07-30T07:12:06;2.10;;;1.80;;
17614;SDS011;8926;49.720;6.576;2022-07-30T07:14:31;2.00;;;1.90;;
17614;SDS011;8926;49.720;6.576;2022-07-30T07:16:57;1.70;;;1.60;;
17614;SDS011;8926;49.720;6.576;2022-07-30T07:19:22;1.83;;;1.73;;
17614;SDS011;8926;49.720;6.576;2022-07-30T07:21:48;1.80;;;1.70;;
17614;SDS011;8926;49.720;6.576;2022-07-30T07:24:13;2.10;;;1.90;;
17614;SDS011;8926;49.720;6.576;2022-07-30T07:26:38;1.70;;;1.60;;
17614;SDS011;8926;49.720;6.576;2022-07-30T07:29:04;3.10;;;2.50;;
17614;SDS011;8926;49.720;6.576;2022-07-30T07:31:29;2.00;;;1.90;;
17614;SDS011;8926;49.720;6.576;2022-07-30T07:33:54;1.77;;;1.67;;
17614;SDS011;8926;49.720;6.576;2022-07-30T07:36:20;2.50;;;1.97;;
17614;SDS011;8926;49.720;6.576;2022-07-30T07:38:46;2.60;;;2.40;;
17614;SDS011;8926;49.720;6.576;2022-07-30T07:41:11;1.70;;;1.60;;
17614;SDS011;8926;49.720;6.576;2022-07-30T07:43:36;3.37;;;2.07;;
17614;SDS011;8926;49.720;6.576;2022-07-30T07:46:02;1.60;;;1.50;;
17614;SDS011;8926;49.720;6.576;2022-07-30T07:48:27;2.23;;;1.50;;
17614;SDS011;8926;49.720;6.576;2022-07-30T07:50:53;1.70;;;1.60;;
17614;SDS011;8926;49.720;6.576;2022-07-30T07:53:18;3.00;;;2.70;;
17614;SDS011;8926;49.720;6.576;2022-07-30T07:55:43;2.47;;;2.30;;
17614;SDS011;8926;49.720;6.576;2022-07-30T07:58:09;2.00;;;1.90;;
17614;SDS011;8926;49.720;6.576;2022-07-30T08:00:37;1.90;;;1.77;;
17614;SDS011;8926;49.720;6.576;2022-07-30T08:03:03;1.77;;;1.67;;
17614;SDS011;8926;49.720;6.576;2022-07-30T08:05:28;2.00;;;1.57;;
17614;SDS011;8926;49.720;6.576;2022-07-30T08:07:53;1.70;;;1.60;;
17614;SDS011;8926;49.720;6.576;2022-07-30T08:10:19;1.60;;;1.50;;
17614;SDS011;8926;49.720;6.576;2022-07-30T08:12:44;1.90;;;1.80;;
17614;SDS011;8926;49.720;6.576;2022-07-30T08:15:09;1.70;;;1.60;;
17614;SDS011;8926;49.720;6.576;2022-07-30T08:17:38;1.60;;;1.50;;
17614;SDS011;8926;49.720;6.576;2022-07-30T08:20:07;1.40;;;1.30;;
17614;SDS011;8926;49.720;6.576;2022-07-30T08:22:34;2.20;;;1.60;;
17614;SDS011;8926;49.720;6.576;2022-07-30T08:24:59;3.07;;;2.13;;
17614;SDS011;8926;49.720;6.576;2022-07-30T08:27:24;1.50;;;1.40;;
17614;SDS011;8926;49.720;6.576;2022-07-30T08:29:50;1.43;;;1.33;;
17614;SDS011;8926;49.720;6.576;2022-07-30T08:32:15;1.87;;;1.77;;
17614;SDS011;8926;49.720;6.576;2022-07-30T08:34:40;1.90;;;1.80;;
17614;SDS011;8926;49.720;6.576;2022-07-30T08:37:06;1.30;;;1.20;;
17614;SDS011;8926;49.720;6.576;2022-07-30T08:39:31;1.60;;;1.50;;
17614;SDS011;8926;49.720;6.576;2022-07-30T08:41:57;1.50;;;1.40;;
17614;SDS011;8926;49.720;6.576;2022-07-30T08:44:22;2.43;;;2.27;;
17614;SDS011;8926;49.720;6.576;2022-07-30T08:46:48;1.60;;;1.50;;
17614;SDS011;8926;49.720;6.576;2022-07-30T08:49:16;1.47;;;1.37;;
17614;SDS011;8926;49.720;6.576;2022-07-30T08:51:42;1.73;;;1.63;;
17614;SDS011;8926;49.720;6.576;2022-07-30T08:54:07;1.27;;;1.17;;
17614;SDS011;8926;49.720;6.576;2022-07-30T08:56:33;1.50;;;1.40;;
17614;SDS011;8926;49.720;6.576;2022-07-30T08:58:59;1.70;;;1.60;;
17614;SDS011;8926;49.720;6.576;2022-07-30T09:01:25;1.60;;;1.50;;
17614;SDS011;8926;49.720;6.576;2022-07-30T09:03:50;1.53;;;1.43;;
17614;SDS011;8926;49.720;6.576;2022-07-30T09:06:16;1.13;;;1.03;;
17614;SDS011;8926;49.720;6.576;2022-07-30T09:08:41;1.60;;;1.50;;
17614;SDS011;8926;49.720;6.576;2022-07-30T09:11:07;1.30;;;1.20;;
17614;SDS011;8926;49.720;6.576;2022-07-30T09:13:34;1.17;;;1.10;;
17614;SDS011;8926;49.720;6.576;2022-07-30T09:16:05;0.83;;;0.83;;
17614;SDS011;8926;49.720;6.576;2022-07-30T09:18:36;1.17;;;1.10;;
17614;SDS011;8926;49.720;6.576;2022-07-30T09:23:59;0.90;;;0.90;;
17614;SDS011;8926;49.720;6.576;2022-07-30T09:26:27;1.70;;;1.10;;
17614;SDS011;8926;49.720;6.576;2022-07-30T09:28:53;1.10;;;1.00;;
17614;SDS011;8926;49.720;6.576;2022-07-30T09:31:19;1.10;;;1.10;;
17614;SDS011;8926;49.720;6.576;2022-07-30T09:33:45;2.43;;;2.30;;
17614;SDS011;8926;49.720;6.576;2022-07-30T09:36:13;1.40;;;1.30;;
17614;SDS011;8926;49.720;6.576;2022-07-30T09:38:51;1.43;;;1.23;;
17614;SDS011;8926;49.720;6.576;2022-07-30T09:41:18;1.50;;;1.23;;
17614;SDS011;8926;49.720;6.576;2022-07-30T09:43:55;1.30;;;1.20;;
17614;SDS011;8926;49.720;6.576;2022-07-30T09:46:21;1.20;;;1.10;;
17614;SDS011;8926;49.720;6.576;2022-07-30T09:48:46;0.80;;;0.80;;
17614;SDS011;8926;49.720;6.576;2022-07-30T09:51:12;1.50;;;1.33;;
17614;SDS011;8926;49.720;6.576;2022-07-30T09:53:53;1.50;;;1.00;;
17614;SDS011;8926;49.720;6.576;2022-07-30T09:56:27;0.70;;;0.70;;
17614;SDS011;8926;49.720;6.576;2022-07-30T09:58:53;0.70;;;0.70;;
17614;SDS011;8926;49.720;6.576;2022-07-30T10:01:20;1.20;;;1.10;;
17614;SDS011;8926;49.720;6.576;2022-07-30T10:03:45;0.90;;;0.90;;
17614;SDS011;8926;49.720;6.576;2022-07-30T10:06:11;0.97;;;0.80;;
17614;SDS011;8926;49.720;6.576;2022-07-30T10:08:38;0.67;;;0.67;;
17614;SDS011;8926;49.720;6.576;2022-07-30T10:11:04;0.80;;;0.80;;
17614;SDS011;8926;49.720;6.576;2022-07-30T10:13:31;0.77;;;0.70;;
17614;SDS011;8926;49.720;6.576;2022-07-30T10:15:57;0.73;;;0.73;;
17614;SDS011;8926;49.720;6.576;2022-07-30T10:18:23;1.00;;;0.93;;
17614;SDS011;8926;49.720;6.576;2022-07-30T10:20:49;1.13;;;1.03;;
17614;SDS011;8926;49.720;6.576;2022-07-30T10:23:14;1.00;;;0.90;;
17614;SDS011;8926;49.720;6.576;2022-07-30T10:25:40;1.00;;;1.00;;
17614;SDS011;8926;49.720;6.576;2022-07-30T10:28:05;1.30;;;1.07;;
17614;SDS011;8926;49.720;6.576;2022-07-30T10:30:31;0.70;;;0.70;;
17614;SDS011;8926;49.720;6.576;2022-07-30T10:32:57;0.70;;;0.70;;
17614;SDS011;8926;49.720;6.576;2022-07-30T10:35:23;0.83;;;0.70;;
17614;SDS011;8926;49.720;6.576;2022-07-30T10:37:49;1.10;;;1.00;;
17614;SDS011;8926;49.720;6.576;2022-07-30T10:40:26;1.03;;;1.00;;
17614;SDS011;8926;49.720;6.576;2022-07-30T10:45:55;0.70;;;0.70;;
17614;SDS011;8926;49.720;6.576;2022-07-30T10:48:31;0.67;;;0.67;;
17614;SDS011;8926;49.720;6.576;2022-07-30T10:50:58;1.90;;;0.90;;
17614;SDS011;8926;49.720;6.576;2022-07-30T10:53:57;0.70;;;0.70;;
17614;SDS011;8926;49.720;6.576;2022-07-30T10:56:19;0.63;;;0.60;;
17614;SDS011;8926;49.720;6.576;2022-07-30T11:04:30;0.50;;;0.50;;
17614;SDS011;8926;49.720;6.576;2022-07-30T11:07:25;0.73;;;0.73;;
17614;SDS011;8926;49.720;6.576;2022-07-30T11:09:49;0.63;;;0.63;;
17614;SDS011;8926;49.720;6.576;2022-07-30T11:12:50;1.90;;;0.80;;
17614;SDS011;8926;49.720;6.576;2022-07-30T11:15:10;1.07;;;0.90;;
17614;SDS011;8926;49.720;6.576;2022-07-30T11:20:33;0.67;;;0.67;;
17614;SDS011;8926;49.720;6.576;2022-07-30T11:25:44;0.70;;;0.70;;
17614;SDS011;8926;49.720;6.576;2022-07-30T11:42:28;0.77;;;0.77;;
17614;SDS011;8926;49.720;6.576;2022-07-30T11:47:40;0.60;;;0.60;;
17614;SDS011;8926;49.720;6.576;2022-07-30T11:50:07;0.63;;;0.63;;
17614;SDS011;8926;49.720;6.576;2022-07-30T11:52:41;0.60;;;0.60;;
17614;SDS011;8926;49.720;6.576;2022-07-30T11:55:07;0.63;;;0.63;;
17614;SDS011;8926;49.720;6.576;2022-07-30T11:57:40;1.20;;;0.87;;
17614;SDS011;8926;49.720;6.576;2022-07-30T12:00:06;0.53;;;0.53;;
17614;SDS011;8926;49.720;6.576;2022-07-30T12:02:32;0.97;;;0.60;;
17614;SDS011;8926;49.720;6.576;2022-07-30T12:04:57;0.50;;;0.50;;
17614;SDS011;8926;49.720;6.576;2022-07-30T12:07:23;1.00;;;0.93;;
17614;SDS011;8926;49.720;6.576;2022-07-30T12:09:48;0.50;;;0.50;;
17614;SDS011;8926;49.720;6.576;2022-07-30T12:12:20;0.50;;;0.50;;
17614;SDS011;8926;49.720;6.576;2022-07-30T12:14:49;0.50;;;0.50;;
17614;SDS011;8926;49.720;6.576;2022-07-30T12:17:15;0.57;;;0.57;;
17614;SDS011;8926;49.720;6.576;2022-07-30T12:19:47;1.33;;;0.50;;
17614;SDS011;8926;49.720;6.576;2022-07-30T12:22:12;0.60;;;0.60;;
17614;SDS011;8926;49.720;6.576;2022-07-30T12:24:37;0.93;;;0.50;;
17614;SDS011;8926;49.720;6.576;2022-07-30T12:27:06;0.20;;;0.20;;
17614;SDS011;8926;49.720;6.576;2022-07-30T12:29:35;0.50;;;0.50;;
17614;SDS011;8926;49.720;6.576;2022-07-30T12:32:00;0.33;;;0.33;;
17614;SDS011;8926;49.720;6.576;2022-07-30T12:34:26;0.77;;;0.43;;
17614;SDS011;8926;49.720;6.576;2022-07-30T12:36:51;0.70;;;0.70;;
17614;SDS011;8926;49.720;6.576;2022-07-30T12:39:18;0.40;;;0.40;;
17614;SDS011;8926;49.720;6.576;2022-07-30T12:41:49;0.30;;;0.30;;
17614;SDS011;8926;49.720;6.576;2022-07-30T12:47:02;0.13;;;0.13;;
17614;SDS011;8926;49.720;6.576;2022-07-30T12:49:29;0.17;;;0.17;;
17614;SDS011;8926;49.720;6.576;2022-07-30T12:51:55;0.30;;;0.30;;
17614;SDS011;8926;49.720;6.576;2022-07-30T12:54:21;0.43;;;0.43;;
17614;SDS011;8926;49.720;6.576;2022-07-30T12:57:02;0.33;;;0.33;;
17614;SDS011;8926;49.720;6.576;2022-07-30T12:59:29;0.40;;;0.40;;
17614;SDS011;8926;49.720;6.576;2022-07-30T13:01:56;0.40;;;0.40;;
17614;SDS011;8926;49.720;6.576;2022-07-30T13:04:24;0.30;;;0.30;;
17614;SDS011;8926;49.720;6.576;2022-07-30T13:07:06;0.30;;;0.30;;
17614;SDS011;8926;49.720;6.576;2022-07-30T13:09:33;0.20;;;0.20;;
17614;SDS011;8926;49.720;6.576;2022-07-30T13:11:59;0.77;;;0.30;;
17614;SDS011;8926;49.720;6.576;2022-07-30T13:14:24;1.80;;;0.50;;
17614;SDS011;8926;49.720;6.576;2022-07-30T13:16:49;0.30;;;0.30;;
17614;SDS011;8926;49.720;6.576;2022-07-30T13:19:18;0.20;;;0.20;;
17614;SDS011;8926;49.720;6.576;2022-07-30T13:21:43;0.20;;;0.20;;
17614;SDS011;8926;49.720;6.576;2022-07-30T13:24:09;0.30;;;0.30;;
17614;SDS011;8926;49.720;6.576;2022-07-30T13:26:36;0.20;;;0.20;;
17614;SDS011;8926;49.720;6.576;2022-07-30T13:29:01;0.30;;;0.30;;
17614;SDS011;8926;49.720;6.576;2022-07-30T13:31:27;0.30;;;0.30;;
17614;SDS011;8926;49.720;6.576;2022-07-30T13:33:53;0.30;;;0.30;;
17614;SDS011;8926;49.720;6.576;2022-07-30T13:36:18;0.30;;;0.30;;
17614;SDS011;8926;49.720;6.576;2022-07-30T13:38:44;0.47;;;0.30;;
17614;SDS011;8926;49.720;6.576;2022-07-30T13:41:10;0.23;;;0.20;;
17614;SDS011;8926;49.720;6.576;2022-07-30T13:43:35;0.63;;;0.40;;
17614;SDS011;8926;49.720;6.576;2022-07-30T13:46:01;0.40;;;0.40;;
17614;SDS011;8926;49.720;6.576;2022-07-30T13:48:28;0.50;;;0.50;;
17614;SDS011;8926;49.720;6.576;2022-07-30T13:50:53;0.30;;;0.30;;
17614;SDS011;8926;49.720;6.576;2022-07-30T13:53:18;0.30;;;0.30;;
17614;SDS011;8926;49.720;6.576;2022-07-30T13:55:44;0.40;;;0.40;;
17614;SDS011;8926;49.720;6.576;2022-07-30T13:58:10;0.23;;;0.23;;
17614;SDS011;8926;49.720;6.576;2022-07-30T14:00:35;0.40;;;0.40;;
17614;SDS011;8926;49.720;6.576;2022-07-30T14:03:02;0.53;;;0.50;;
17614;SDS011;8926;49.720;6.576;2022-07-30T14:05:29;0.30;;;0.30;;
17614;SDS011;8926;49.720;6.576;2022-07-30T14:07:54;0.30;;;0.30;;
17614;SDS011;8926;49.720;6.576;2022-07-30T14:10:21;0.53;;;0.40;;
17614;SDS011;8926;49.720;6.576;2022-07-30T14:12:50;0.33;;;0.33;;
17614;SDS011;8926;49.720;6.576;2022-07-30T14:15:20;0.27;;;0.27;;
17614;SDS011;8926;49.720;6.576;2022-07-30T14:17:46;0.30;;;0.30;;
17614;SDS011;8926;49.720;6.576;2022-07-30T14:20:12;0.30;;;0.30;;
17614;SDS011;8926;49.720;6.576;2022-07-30T14:22:37;0.30;;;0.30;;
17614;SDS011;8926;49.720;6.576;2022-07-30T14:25:02;0.77;;;0.20;;
17614;SDS011;8926;49.720;6.576;2022-07-30T14:27:28;0.40;;;0.40;;
17614;SDS011;8926;49.720;6.576;2022-07-30T14:29:54;0.20;;;0.20;;
17614;SDS011;8926;49.720;6.576;2022-07-30T14:32:19;0.30;;;0.30;;
17614;SDS011;8926;49.720;6.576;2022-07-30T14:34:44;0.30;;;0.30;;
17614;SDS011;8926;49.720;6.576;2022-07-30T14:37:10;0.20;;;0.20;;
17614;SDS011;8926;49.720;6.576;2022-07-30T14:39:35;0.30;;;0.30;;
17614;SDS011;8926;49.720;6.576;2022-07-30T14:42:00;0.20;;;0.20;;
17614;SDS011;8926;49.720;6.576;2022-07-30T14:44:26;0.30;;;0.30;;
17614;SDS011;8926;49.720;6.576;2022-07-30T14:46:51;0.40;;;0.40;;
17614;SDS011;8926;49.720;6.576;2022-07-30T14:49:16;0.20;;;0.20;;
17614;SDS011;8926;49.720;6.576;2022-07-30T14:51:43;0.40;;;0.40;;
17614;SDS011;8926;49.720;6.576;2022-07-30T14:54:08;0.33;;;0.33;;
17614;SDS011;8926;49.720;6.576;2022-07-30T14:56:35;0.23;;;0.23;;
17614;SDS011;8926;49.720;6.576;2022-07-30T14:59:01;0.23;;;0.23;;
17614;SDS011;8926;49.720;6.576;2022-07-30T15:01:26;0.43;;;0.43;;
17614;SDS011;8926;49.720;6.576;2022-07-30T15:03:52;0.13;;;0.13;;
17614;SDS011;8926;49.720;6.576;2022-07-30T15:06:17;0.30;;;0.30;;
17614;SDS011;8926;49.720;6.576;2022-07-30T15:08:42;0.20;;;0.20;;
17614;SDS011;8926;49.720;6.576;2022-07-30T15:11:09;0.40;;;0.40;;
17614;SDS011;8926;49.720;6.576;2022-07-30T15:13:35;0.30;;;0.30;;
17614;SDS011;8926;49.720;6.576;2022-07-30T15:16:01;0.20;;;0.20;;
17614;SDS011;8926;49.720;6.576;2022-07-30T15:18:26;0.20;;;0.20;;
17614;SDS011;8926;49.720;6.576;2022-07-30T15:20:51;0.80;;;0.60;;
17614;SDS011;8926;49.720;6.576;2022-07-30T15:23:17;0.60;;;0.60;;
17614;SDS011;8926;49.720;6.576;2022-07-30T15:25:42;0.50;;;0.50;;
17614;SDS011;8926;49.720;6.576;2022-07-30T15:28:09;0.70;;;0.70;;
17614;SDS011;8926;49.720;6.576;2022-07-30T15:30:34;0.50;;;0.50;;
17614;SDS011;8926;49.720;6.576;2022-07-30T15:33:00;0.50;;;0.50;;
17614;SDS011;8926;49.720;6.576;2022-07-30T15:35:26;0.30;;;0.30;;
17614;SDS011;8926;49.720;6.576;2022-07-30T15:37:51;0.50;;;0.50;;
17614;SDS011;8926;49.720;6.576;2022-07-30T15:40:16;0.40;;;0.40;;
17614;SDS011;8926;49.720;6.576;2022-07-30T15:42:42;0.30;;;0.30;;